Time;durP1;ratioP1;P1;durP2;ratioP2;P2;SDS_P1;SDS_P2;PMS_P1;PMS_P2;Temp;Humidity;BMP_temperature;BMP_pressure;BME280_temperature;BME280_humidity;BME280_pressure;Samples;Min_cycle;Max_cycle;Signal;HPM_P1;HPM_P2
2021/12/02 00:02:14;;;;;;;;;;;20.60;60.10;;;;;;5011545;28;1171;-71
2021/12/02 00:04:40;;;;;;;;;;;20.60;60.10;;;;;;5005945;28;1139;-70
2021/12/02 00:07:06;;;;;;;;;;;20.50;60.00;;;;;;5010554;28;1288;-70
2021/12/02 00:09:32;;;;;;;;;;;20.50;60.10;;;;;;5006044;28;1061;-70
2021/12/02 00:11:57;;;;;;;;;;;20.50;60.10;;;;;;5011789;28;1952;-70
2021/12/02 00:14:25;;;;;;;;;;;20.50;60.10;;;;;;5015667;28;1067;-70
2021/12/02 00:17:03;;;;;;;;;;;20.50;60.10;;;;;;5015961;28;1354;-70
2021/12/02 00:22:13;;;;;;;;;;;20.50;60.20;;;;;;5008062;28;1059;-71
2021/12/02 00:24:39;;;;;;;;;;;20.50;60.30;;;;;;4991299;28;1176;-70
2021/12/02 00:27:05;;;;;;;;;;;20.50;60.30;;;;;;5009788;28;1181;-71
2021/12/02 00:29:31;;;;;;;;;;;20.50;60.30;;;;;;5007834;28;1344;-71
2021/12/02 00:31:57;;;;;;;;;;;20.50;60.30;;;;;;4995173;28;1890;-71
2021/12/02 00:34:23;;;;;;;;;;;20.50;60.40;;;;;;5007123;28;1128;-71
2021/12/02 00:36:48;;;;;;;;;;;20.50;60.40;;;;;;5002181;28;1462;-70
2021/12/02 00:39:14;;;;;;;;;;;20.50;60.40;;;;;;5030910;28;1108;-70
2021/12/02 00:41:40;;;;;;;;;;;20.40;60.40;;;;;;5002149;28;1242;-71
2021/12/02 00:44:05;;;;;;;;;;;20.40;60.40;;;;;;5015228;28;1314;-71
2021/12/02 00:46:32;;;;;;;;;;;20.40;60.40;;;;;;5006695;28;1326;-71
2021/12/02 00:49:01;;;;;;;;;;;20.40;60.40;;;;;;5009699;28;1170;-69
2021/12/02 00:51:27;;;;;;;;;;;20.40;60.50;;;;;;5013997;28;1906;-71
2021/12/02 00:53:52;;;;;;;;;;;20.40;60.50;;;;;;5015265;28;1306;-70
2021/12/02 00:56:20;;;;;;;;;;;20.40;60.50;;;;;;5005767;28;1239;-71
2021/12/02 00:58:46;;;;;;;;;;;20.40;60.60;;;;;;5010365;28;1340;-72
2021/12/02 01:01:11;;;;;;;;;;;20.40;60.60;;;;;;5014147;28;1083;-71
2021/12/02 01:03:37;;;;;;;;;;;20.30;60.60;;;;;;5000494;28;1092;-70
2021/12/02 01:06:04;;;;;;;;;;;20.40;60.70;;;;;;5014731;28;1312;-71
2021/12/02 01:08:29;;;;;;;;;;;20.40;60.70;;;;;;5000630;28;1085;-70
2021/12/02 01:10:55;;;;;;;;;;;20.40;60.70;;;;;;5004942;28;1958;-71
2021/12/02 01:13:20;;;;;;;;;;;20.40;60.70;;;;;;5009716;28;1118;-71
2021/12/02 01:15:46;;;;;;;;;;;20.30;60.70;;;;;;5005156;28;1366;-71
2021/12/02 01:18:11;;;;;;;;;;;20.40;60.80;;;;;;5009551;28;1080;-71
2021/12/02 01:20:37;;;;;;;;;;;20.40;60.80;;;;;;5011730;28;1197;-71
2021/12/02 01:23:02;;;;;;;;;;;20.30;60.80;;;;;;4999191;28;1084;-71
2021/12/02 01:25:30;;;;;;;;;;;20.30;60.80;;;;;;5014689;28;1351;-72
2021/12/02 01:27:56;;;;;;;;;;;20.30;60.80;;;;;;5000405;28;1320;-71
2021/12/02 01:30:22;;;;;;;;;;;20.30;60.80;;;;;;5004946;28;1895;-70
2021/12/02 01:32:47;;;;;;;;;;;20.30;60.80;;;;;;5007684;28;1644;-71
2021/12/02 01:35:13;;;;;;;;;;;20.30;60.80;;;;;;5005307;28;1848;-71
2021/12/02 01:37:38;;;;;;;;;;;20.30;60.90;;;;;;5007901;28;1351;-70
2021/12/02 01:40:04;;;;;;;;;;;20.30;60.90;;;;;;5014171;28;1244;-71
2021/12/02 01:42:29;;;;;;;;;;;20.30;60.90;;;;;;5013012;28;1087;-71
2021/12/02 01:44:56;;;;;;;;;;;20.30;60.90;;;;;;5005673;28;1135;-71
2021/12/02 01:47:23;;;;;;;;;;;20.30;60.90;;;;;;5007880;28;1220;-71
2021/12/02 01:49:51;;;;;;;;;;;20.30;61.00;;;;;;5006236;28;1104;-71
2021/12/02 01:52:16;;;;;;;;;;;20.30;60.90;;;;;;5007257;28;1984;-71
2021/12/02 01:54:42;;;;;;;;;;;20.30;61.00;;;;;;5005604;28;1092;-71
2021/12/02 01:57:08;;;;;;;;;;;20.30;61.00;;;;;;5008268;28;1212;-71
2021/12/02 01:59:34;;;;;;;;;;;20.20;61.00;;;;;;5013930;28;1059;-71
2021/12/02 02:02:01;;;;;;;;;;;20.20;61.00;;;;;;5013165;28;1263;-71
2021/12/02 02:04:26;;;;;;;;;;;20.20;61.10;;;;;;5013153;28;1059;-71
2021/12/02 02:06:56;;;;;;;;;;;20.20;61.00;;;;;;4999547;28;1325;-71
2021/12/02 02:09:22;;;;;;;;;;;20.20;61.00;;;;;;5004643;28;1073;-71
2021/12/02 02:11:47;;;;;;;;;;;20.20;61.00;;;;;;5006772;28;1898;-70
2021/12/02 02:14:13;;;;;;;;;;;20.20;61.10;;;;;;5004222;28;1065;-71
2021/12/02 02:16:40;;;;;;;;;;;20.20;61.10;;;;;;5007129;28;1377;-71
2021/12/02 02:19:07;;;;;;;;;;;20.20;61.10;;;;;;5013574;28;1119;-69
2021/12/02 02:21:36;;;;;;;;;;;20.20;61.10;;;;;;5011587;28;1239;-71
2021/12/02 02:24:02;;;;;;;;;;;20.20;61.10;;;;;;5001262;28;1068;-71
2021/12/02 02:26:30;;;;;;;;;;;20.20;61.20;;;;;;4998644;28;1342;-71
2021/12/02 02:28:55;;;;;;;;;;;20.20;61.20;;;;;;4996328;28;1041;-71
2021/12/02 02:31:21;;;;;;;;;;;20.20;61.10;;;;;;4997664;28;1910;-70
2021/12/02 02:33:50;;;;;;;;;;;20.20;61.20;;;;;;4993738;28;1119;-71
2021/12/02 02:36:19;;;;;;;;;;;20.20;61.10;;;;;;5005753;28;1379;-71
2021/12/02 02:38:55;;;;;;;;;;;20.20;61.10;;;;;;5001675;28;1135;-71
2021/12/02 02:41:26;;;;;;;;;;;20.20;61.10;;;;;;4999513;28;1060;-71
2021/12/02 02:43:52;;;;;;;;;;;20.20;61.10;;;;;;5012017;28;1111;-70
2021/12/02 02:46:24;;;;;;;;;;;20.20;61.10;;;;;;5013217;28;1326;-71
2021/12/02 02:48:49;;;;;;;;;;;20.20;61.10;;;;;;5013131;28;1252;-70
2021/12/02 02:51:15;;;;;;;;;;;20.20;61.00;;;;;;4992002;28;1960;-71
2021/12/02 02:53:40;;;;;;;;;;;20.20;61.00;;;;;;5004606;28;1321;-71
2021/12/02 02:56:10;;;;;;;;;;;20.20;61.00;;;;;;5013300;28;1263;-71
2021/12/02 03:01:31;;;;;;;;;;;20.20;61.00;;;;;;5013130;28;1279;-71
2021/12/02 03:04:11;;;;;;;;;;;20.20;61.00;;;;;;4998590;28;1041;-71
2021/12/02 03:06:49;;;;;;;;;;;20.20;61.00;;;;;;5012569;28;1310;-71
2021/12/02 03:12:25;;;;;;;;;;;20.20;61.00;;;;;;4972189;28;1911;-71
2021/12/02 03:17:28;;;;;;;;;;;20.20;61.00;;;;;;4993685;28;1282;-72
2021/12/02 03:19:53;;;;;;;;;;;20.20;61.00;;;;;;4992835;28;1131;-71
2021/12/02 03:22:19;;;;;;;;;;;20.20;61.00;;;;;;5004399;28;1315;-71
2021/12/02 03:24:44;;;;;;;;;;;20.20;61.00;;;;;;4992782;28;1286;-70
2021/12/02 03:27:10;;;;;;;;;;;20.20;61.00;;;;;;4993259;28;1286;-71
2021/12/02 03:29:35;;;;;;;;;;;20.20;61.00;;;;;;4999653;28;1068;-71
2021/12/02 03:32:01;;;;;;;;;;;20.20;61.00;;;;;;4992312;28;1903;-71
2021/12/02 03:34:27;;;;;;;;;;;20.20;61.00;;;;;;5004869;28;1267;-69
2021/12/02 03:36:52;;;;;;;;;;;20.20;61.00;;;;;;4999403;28;1442;-71
2021/12/02 03:39:18;;;;;;;;;;;20.20;61.00;;;;;;4997796;28;1056;-71
2021/12/02 03:41:43;;;;;;;;;;;20.20;61.00;;;;;;4998670;28;1291;-70
2021/12/02 03:44:09;;;;;;;;;;;20.20;61.00;;;;;;4993584;28;2161;-71
2021/12/02 03:46:34;;;;;;;;;;;20.20;61.00;;;;;;4999142;28;1274;-71
2021/12/02 03:49:00;;;;;;;;;;;20.20;61.00;;;;;;4996726;28;1132;-71
2021/12/02 03:51:25;;;;;;;;;;;20.20;61.00;;;;;;4982421;28;2022;-72
2021/12/02 03:53:51;;;;;;;;;;;20.20;61.00;;;;;;4997887;28;1068;-71
2021/12/02 03:56:16;;;;;;;;;;;20.20;61.00;;;;;;4992632;28;1206;-71
2021/12/02 03:58:42;;;;;;;;;;;20.20;61.00;;;;;;4992557;28;1060;-71
2021/12/02 04:01:07;;;;;;;;;;;20.20;61.00;;;;;;4992418;28;1052;-71
2021/12/02 04:03:33;;;;;;;;;;;20.20;60.90;;;;;;4992299;28;1053;-71
2021/12/02 04:05:59;;;;;;;;;;;20.20;60.90;;;;;;4992690;28;1199;-71
2021/12/02 04:08:37;;;;;;;;;;;20.20;60.90;;;;;;4992677;28;1300;-70
2021/12/02 04:11:16;;;;;;;;;;;20.20;60.90;;;;;;4991869;28;2048;-71
2021/12/02 04:16:20;;;;;;;;;;;20.20;60.90;;;;;;4992884;28;1221;-71
2021/12/02 04:18:46;;;;;;;;;;;20.20;60.90;;;;;;4992762;28;1316;-71
2021/12/02 04:21:11;;;;;;;;;;;20.20;60.80;;;;;;5002162;28;1079;-71
2021/12/02 04:23:37;;;;;;;;;;;20.30;60.90;;;;;;4993161;28;1164;-70
2021/12/02 04:26:02;;;;;;;;;;;20.20;60.90;;;;;;4992638;28;1271;-71
2021/12/02 04:28:28;;;;;;;;;;;20.20;60.90;;;;;;5012703;28;1195;-71
2021/12/02 04:30:53;;;;;;;;;;;20.20;60.80;;;;;;5001896;28;1942;-71
2021/12/02 04:33:19;;;;;;;;;;;20.20;60.80;;;;;;4995769;28;1369;-71
2021/12/02 04:35:44;;;;;;;;;;;20.20;60.80;;;;;;4996039;28;1360;-71
2021/12/02 04:38:09;;;;;;;;;;;20.20;60.90;;;;;;4995855;28;1306;-70
2021/12/02 04:40:36;;;;;;;;;;;20.20;60.90;;;;;;4996193;28;1076;-71
2021/12/02 04:43:02;;;;;;;;;;;20.20;61.70;;;;;;5006587;28;1144;-70
2021/12/02 04:45:27;;;;;;;;;;;20.20;60.90;;;;;;5007295;28;1288;-70
2021/12/02 04:47:53;;;;;;;;;;;20.20;60.90;;;;;;5014915;28;1288;-71
2021/12/02 04:50:18;;;;;;;;;;;20.20;60.90;;;;;;5015367;28;1967;-71
2021/12/02 04:52:44;;;;;;;;;;;20.20;60.90;;;;;;5015493;28;1314;-71
2021/12/02 04:55:09;;;;;;;;;;;20.20;60.90;;;;;;5002761;28;1287;-71
2021/12/02 04:57:34;;;;;;;;;;;20.20;60.90;;;;;;5013379;28;1285;-70
2021/12/02 05:00:00;;;;;;;;;;;20.20;60.90;;;;;;5014953;28;1147;-71
2021/12/02 05:02:25;;;;;;;;;;;20.20;61.00;;;;;;4995550;28;1373;-71
2021/12/02 05:04:51;;;;;;;;;;;20.20;61.00;;;;;;5006421;28;1080;-71
2021/12/02 05:07:16;;;;;;;;;;;20.20;61.00;;;;;;5015107;28;1205;-71
2021/12/02 05:09:42;;;;;;;;;;;20.20;61.00;;;;;;5014517;28;1458;-71
2021/12/02 05:12:07;;;;;;;;;;;20.20;61.00;;;;;;5014933;28;1895;-71
2021/12/02 05:14:32;;;;;;;;;;;20.20;60.90;;;;;;5015130;28;1060;-71
2021/12/02 05:16:58;;;;;;;;;;;20.30;61.00;;;;;;5014878;28;1288;-71
2021/12/02 05:19:23;;;;;;;;;;;20.30;60.90;;;;;;5008276;28;2187;-69
2021/12/02 05:21:49;;;;;;;;;;;20.30;60.80;;;;;;5009596;28;1209;-70
2021/12/02 05:24:14;;;;;;;;;;;20.40;60.70;;;;;;5002725;28;1150;-70
2021/12/02 05:26:40;;;;;;;;;;;20.40;60.50;;;;;;5010316;28;1281;-69
2021/12/02 05:29:05;;;;;;;;;;;20.40;60.40;;;;;;5005426;28;1276;-69
2021/12/02 05:31:31;;;;;;;;;;;20.50;60.30;;;;;;4997497;28;1902;-71
2021/12/02 05:33:56;;;;;;;;;;;20.50;60.10;;;;;;4994816;28;1378;-70
2021/12/02 05:36:21;;;;;;;;;;;20.50;60.00;;;;;;4994674;28;1249;-70
2021/12/02 05:38:47;;;;;;;;;;;20.60;59.90;;;;;;4993323;28;1068;-70
2021/12/02 05:41:13;;;;;;;;;;;20.60;59.80;;;;;;4997188;28;1341;-70
2021/12/02 05:43:39;;;;;;;;;;;20.60;59.70;;;;;;5014515;28;1409;-70
2021/12/02 05:46:05;;;;;;;;;;;20.60;59.70;;;;;;5012444;28;1332;-70
2021/12/02 05:48:30;;;;;;;;;;;20.60;59.60;;;;;;5003153;28;1302;-70
2021/12/02 05:50:56;;;;;;;;;;;20.70;59.60;;;;;;5010046;28;1902;-71
2021/12/02 05:53:21;;;;;;;;;;;20.70;59.60;;;;;;5013937;28;1262;-71
2021/12/02 05:55:47;;;;;;;;;;;20.70;59.50;;;;;;5014029;28;1289;-70
2021/12/02 05:58:13;;;;;;;;;;;20.70;59.50;;;;;;5014000;28;1048;-70
2021/12/02 06:00:39;;;;;;;;;;;20.70;59.40;;;;;;5013581;28;1291;-70
2021/12/02 06:03:04;;;;;;;;;;;20.70;59.40;;;;;;5013439;28;1285;-69
2021/12/02 06:05:30;;;;;;;;;;;20.70;59.40;;;;;;5013998;28;1300;-71
2021/12/02 06:08:01;;;;;;;;;;;20.70;59.40;;;;;;5013467;28;1337;-71
2021/12/02 06:10:26;;;;;;;;;;;20.70;59.40;;;;;;5013651;28;1895;-71
2021/12/02 06:12:52;;;;;;;;;;;20.70;59.30;;;;;;5002309;28;1284;-71
2021/12/02 06:15:17;;;;;;;;;;;20.70;59.30;;;;;;5008768;28;1345;-71
2021/12/02 06:17:43;;;;;;;;;;;20.80;59.40;;;;;;5013694;28;1087;-72
2021/12/02 06:20:09;;;;;;;;;;;20.80;59.30;;;;;;5013686;28;1354;-71
2021/12/02 06:22:34;;;;;;;;;;;20.80;59.30;;;;;;5002933;28;1824;-71
2021/12/02 06:25:43;;;;;;;;;;;20.80;59.40;;;;;;5008010;28;1456;-71
2021/12/02 06:27:52;;;;;;;;;;;20.80;59.40;;;;;;5013573;28;1275;-70
2021/12/02 06:30:18;;;;;;;;;;;20.80;59.40;;;;;;5001297;28;1906;-70
2021/12/02 06:32:43;;;;;;;;;;;20.80;59.40;;;;;;5005286;28;1295;-70
2021/12/02 06:35:09;;;;;;;;;;;20.80;59.40;;;;;;5013504;28;1402;-70
2021/12/02 06:37:34;;;;;;;;;;;20.70;59.30;;;;;;5013801;28;1159;-70
2021/12/02 06:40:00;;;;;;;;;;;20.80;59.40;;;;;;4993789;28;1388;-71
2021/12/02 06:42:25;;;;;;;;;;;20.70;59.30;;;;;;5005945;28;1233;-70
2021/12/02 06:44:51;;;;;;;;;;;20.80;59.40;;;;;;5013312;28;1310;-70
2021/12/02 06:47:16;;;;;;;;;;;20.70;59.30;;;;;;5013240;28;1364;-70
2021/12/02 06:49:41;;;;;;;;;;;20.80;59.40;;;;;;4992331;28;1267;-69
2021/12/02 06:52:12;;;;;;;;;;;20.70;59.30;;;;;;5005141;28;1906;-70
2021/12/02 06:54:37;;;;;;;;;;;20.70;59.30;;;;;;5005459;28;1041;-70
2021/12/02 06:57:03;;;;;;;;;;;20.70;59.30;;;;;;5005301;28;1315;-69
2021/12/02 06:59:28;;;;;;;;;;;20.70;59.30;;;;;;5012548;28;1359;-70
2021/12/02 07:01:54;;;;;;;;;;;20.80;59.30;;;;;;4998221;28;1406;-69
2021/12/02 07:04:19;;;;;;;;;;;20.70;59.30;;;;;;5012418;28;1322;-70
2021/12/02 07:06:45;;;;;;;;;;;20.80;59.40;;;;;;5012917;28;1212;-70
2021/12/02 07:09:10;;;;;;;;;;;20.70;59.30;;;;;;5012703;28;1347;-70
2021/12/02 07:11:35;;;;;;;;;;;20.70;59.30;;;;;;5011853;28;1898;-70
2021/12/02 07:14:05;;;;;;;;;;;20.70;59.30;;;;;;5012469;28;1386;-70
2021/12/02 07:16:32;;;;;;;;;;;20.80;59.20;;;;;;5012804;28;1272;-69
2021/12/02 07:18:58;;;;;;;;;;;20.70;56.50;;;;;;5012922;28;1315;-69
2021/12/02 07:21:24;;;;;;;;;;;20.70;55.50;;;;;;5010042;28;1462;-70
2021/12/02 07:23:50;;;;;;;;;;;20.70;54.10;;;;;;4998612;28;1387;-69
2021/12/02 07:26:16;;;;;;;;;;;20.60;53.10;;;;;;4999245;28;1332;-70
2021/12/02 07:28:41;;;;;;;;;;;20.60;53.60;;;;;;4993932;28;1292;-69
2021/12/02 07:31:06;;;;;;;;;;;20.60;54.10;;;;;;4999170;28;1895;-68
2021/12/02 07:33:36;;;;;;;;;;;20.60;54.30;;;;;;4993014;28;1398;-69
2021/12/02 07:36:02;;;;;;;;;;;20.60;54.50;;;;;;4993088;28;1225;-69
2021/12/02 07:38:27;;;;;;;;;;;20.60;54.90;;;;;;4992670;28;1247;-70
2021/12/02 07:40:53;;;;;;;;;;;20.60;55.30;;;;;;5005046;28;1292;-70
2021/12/02 07:43:19;;;;;;;;;;;20.70;55.70;;;;;;5011175;28;1234;-70
2021/12/02 07:45:45;;;;;;;;;;;20.80;55.80;;;;;;5012372;28;1177;-70
2021/12/02 07:48:12;;;;;;;;;;;20.90;55.80;;;;;;5012850;28;1060;-71
2021/12/02 07:50:37;;;;;;;;;;;21.00;55.90;;;;;;5011899;28;1902;-69
2021/12/02 07:53:03;;;;;;;;;;;21.10;55.80;;;;;;4993175;28;1382;-68
2021/12/02 07:55:29;;;;;;;;;;;21.20;55.70;;;;;;5003525;28;1272;-69
2021/12/02 07:57:54;;;;;;;;;;;21.30;55.70;;;;;;5011838;28;1334;-70
2021/12/02 08:00:21;;;;;;;;;;;21.50;55.60;;;;;;4996382;28;1241;-71
2021/12/02 08:02:48;;;;;;;;;;;21.60;55.50;;;;;;5013800;28;1242;-71
2021/12/02 08:05:13;;;;;;;;;;;21.70;55.30;;;;;;5015597;28;1307;-70
2021/12/02 08:07:39;;;;;;;;;;;21.80;55.20;;;;;;5016163;28;1068;-71
2021/12/02 08:10:06;;;;;;;;;;;21.90;55.10;;;;;;5015293;28;1315;-71
2021/12/02 08:12:31;;;;;;;;;;;22.00;55.00;;;;;;5015278;28;1898;-72
2021/12/02 08:14:56;;;;;;;;;;;22.00;54.80;;;;;;5013441;28;1166;-71
2021/12/02 08:17:22;;;;;;;;;;;22.10;54.80;;;;;;5013146;28;1299;-70
2021/12/02 08:19:47;;;;;;;;;;;22.20;54.80;;;;;;5011617;28;1220;-70
2021/12/02 08:22:13;;;;;;;;;;;22.20;54.80;;;;;;5010820;28;1247;-70
2021/12/02 08:24:38;;;;;;;;;;;22.30;54.80;;;;;;5013498;28;1290;-70
2021/12/02 08:27:04;;;;;;;;;;;22.30;54.70;;;;;;5012914;28;1345;-71
2021/12/02 08:29:33;;;;;;;;;;;22.40;54.80;;;;;;5020736;28;1525;-71
2021/12/02 08:32:02;;;;;;;;;;;22.50;54.80;;;;;;4985729;28;1953;-71
2021/12/02 08:34:27;;;;;;;;;;;22.50;54.80;;;;;;5000107;28;1111;-71
2021/12/02 08:36:54;;;;;;;;;;;22.60;54.90;;;;;;4995263;28;1296;-72
2021/12/02 08:39:26;;;;;;;;;;;22.60;54.90;;;;;;4996029;28;1335;-71
2021/12/02 08:41:54;;;;;;;;;;;22.60;54.90;;;;;;5003905;28;1018;-71
2021/12/02 08:44:19;;;;;;;;;;;22.70;54.90;;;;;;5014426;28;1271;-71
2021/12/02 08:46:47;;;;;;;;;;;22.70;54.90;;;;;;5013746;28;1322;-71
2021/12/02 08:49:12;;;;;;;;;;;22.80;54.90;;;;;;5015144;28;1289;-71
2021/12/02 08:51:38;;;;;;;;;;;22.80;54.90;;;;;;5003638;28;1910;-71
2021/12/02 08:54:03;;;;;;;;;;;22.80;55.50;;;;;;5008307;28;1167;-71
2021/12/02 08:56:29;;;;;;;;;;;22.90;54.90;;;;;;4994924;28;1352;-70
2021/12/02 08:58:54;;;;;;;;;;;22.90;55.00;;;;;;4995330;28;1488;-71
2021/12/02 09:01:20;;;;;;;;;;;22.90;55.00;;;;;;4994799;28;1416;-71
2021/12/02 09:03:45;;;;;;;;;;;22.90;55.00;;;;;;4995802;28;1345;-70
2021/12/02 09:06:11;;;;;;;;;;;23.00;55.10;;;;;;5002462;28;1407;-71
2021/12/02 09:08:38;;;;;;;;;;;23.00;55.10;;;;;;5012435;28;1095;-71
2021/12/02 09:11:03;;;;;;;;;;;23.00;55.20;;;;;;5002038;28;1911;-71
2021/12/02 09:13:29;;;;;;;;;;;23.00;55.20;;;;;;5000832;28;1347;-71
2021/12/02 09:15:55;;;;;;;;;;;23.00;55.20;;;;;;5005697;28;1355;-71
2021/12/02 09:18:20;;;;;;;;;;;23.10;55.20;;;;;;4994658;28;1318;-71
2021/12/02 09:20:46;;;;;;;;;;;23.10;55.30;;;;;;5001315;28;977;-71
2021/12/02 09:23:13;;;;;;;;;;;23.10;55.30;;;;;;4998746;28;1077;-71
2021/12/02 09:25:38;;;;;;;;;;;23.10;55.40;;;;;;4994968;28;1365;-71
2021/12/02 09:28:04;;;;;;;;;;;23.10;55.50;;;;;;4994374;28;1044;-70
2021/12/02 09:30:29;;;;;;;;;;;23.10;55.50;;;;;;5001108;28;1898;-71
2021/12/02 09:32:55;;;;;;;;;;;23.10;55.50;;;;;;4994143;28;1255;-71
2021/12/02 09:35:20;;;;;;;;;;;23.10;55.60;;;;;;5003329;28;1386;-71
2021/12/02 09:37:46;;;;;;;;;;;23.10;55.70;;;;;;4998896;28;1301;-71
2021/12/02 09:40:13;;;;;;;;;;;23.10;55.70;;;;;;4994666;28;1221;-72
2021/12/02 09:42:39;;;;;;;;;;;23.10;55.70;;;;;;5008237;28;1269;-71
2021/12/02 09:45:05;;;;;;;;;;;23.10;55.80;;;;;;5004186;28;1395;-71
2021/12/02 09:47:31;;;;;;;;;;;23.10;55.90;;;;;;5007424;28;1302;-71
2021/12/02 09:50:02;;;;;;;;;;;23.10;56.00;;;;;;4994300;28;1338;-71
2021/12/02 09:52:35;;;;;;;;;;;23.10;56.10;;;;;;4993299;28;1906;-71
2021/12/02 09:55:08;;;;;;;;;;;23.10;56.10;;;;;;4994468;28;1251;-70
2021/12/02 09:57:38;;;;;;;;;;;23.10;56.20;;;;;;4993981;28;1288;-72
2021/12/02 10:00:04;;;;;;;;;;;23.10;56.30;;;;;;4993889;28;916;-70
2021/12/02 10:02:30;;;;;;;;;;;23.10;56.50;;;;;;5010267;28;1101;-70
2021/12/02 10:05:02;;;;;;;;;;;23.00;56.50;;;;;;5001192;28;1403;-70
2021/12/02 10:07:35;;;;;;;;;;;23.00;56.60;;;;;;4994178;28;1199;-70
2021/12/02 10:10:08;;;;;;;;;;;23.00;56.60;;;;;;4994110;28;1298;-70
2021/12/02 10:12:36;;;;;;;;;;;23.00;56.70;;;;;;4993268;28;1902;-70
2021/12/02 10:15:08;;;;;;;;;;;23.00;56.80;;;;;;5012689;28;1283;-70
2021/12/02 10:17:37;;;;;;;;;;;23.00;56.80;;;;;;4992134;28;1352;-70
2021/12/02 10:23:10;;;;;;;;;;;22.90;57.10;;;;;;5004389;28;1834;-70
2021/12/02 10:25:35;;;;;;;;;;;22.90;57.20;;;;;;5012309;28;1294;-70
2021/12/02 10:28:05;;;;;;;;;;;22.90;57.20;;;;;;5008063;28;1333;-70
2021/12/02 10:30:30;;;;;;;;;;;22.80;57.30;;;;;;5012291;28;2039;-68
2021/12/02 10:32:56;;;;;;;;;;;22.80;57.40;;;;;;5007866;28;1950;-69
2021/12/02 10:35:24;;;;;;;;;;;22.80;57.60;;;;;;5012738;28;1288;-69
2021/12/02 10:37:50;;;;;;;;;;;22.70;57.90;;;;;;5006466;28;1275;-69
2021/12/02 10:40:16;;;;;;;;;;;22.70;57.80;;;;;;5004309;28;1332;-70
2021/12/02 10:42:42;;;;;;;;;;;22.70;57.90;;;;;;5004420;28;1254;-71
2021/12/02 10:45:21;;;;;;;;;;;22.70;58.00;;;;;;4993273;28;1282;-69
2021/12/02 10:47:47;;;;;;;;;;;22.70;58.00;;;;;;4993038;28;1434;-68
2021/12/02 10:50:13;;;;;;;;;;;22.60;58.10;;;;;;5011587;28;1116;-69
2021/12/02 10:52:38;;;;;;;;;;;22.60;58.20;;;;;;4996343;28;1963;-68
2021/12/02 10:55:05;;;;;;;;;;;22.60;58.30;;;;;;5003647;28;1264;-69
2021/12/02 10:57:31;;;;;;;;;;;22.60;58.40;;;;;;5013564;28;1295;-70
2021/12/02 10:59:57;;;;;;;;;;;22.60;58.60;;;;;;5012505;28;1291;-70
2021/12/02 11:02:24;;;;;;;;;;;22.60;59.20;;;;;;5004894;28;1841;-69
2021/12/02 11:04:55;;;;;;;;;;;22.60;58.70;;;;;;5009537;28;1200;-69
2021/12/02 11:07:25;;;;;;;;;;;22.50;59.20;;;;;;5007368;28;1332;-69
2021/12/02 11:09:51;;;;;;;;;;;22.50;58.80;;;;;;5009282;28;1239;-71
2021/12/02 11:12:17;;;;;;;;;;;22.50;58.70;;;;;;5008992;28;1906;-70
2021/12/02 11:14:50;;;;;;;;;;;22.50;58.90;;;;;;5012581;28;1182;-69
2021/12/02 11:17:16;;;;;;;;;;;22.50;58.80;;;;;;4991669;28;1540;-69
2021/12/02 11:19:42;;;;;;;;;;;22.40;58.90;;;;;;5003551;28;1291;-70
2021/12/02 11:22:09;;;;;;;;;;;22.50;58.90;;;;;;5008317;28;1088;-70
2021/12/02 11:24:34;;;;;;;;;;;22.40;59.00;;;;;;5011470;28;941;-70
2021/12/02 11:27:10;;;;;;;;;;;22.40;59.10;;;;;;4999306;28;1209;-70
2021/12/02 11:29:54;;;;;;;;;;;22.40;59.10;;;;;;5011626;28;1155;-70
2021/12/02 11:32:26;;;;;;;;;;;22.40;59.10;;;;;;5008803;28;1895;-68
2021/12/02 11:34:58;;;;;;;;;;;22.40;59.20;;;;;;5006763;28;1892;-69
2021/12/02 11:37:24;;;;;;;;;;;22.30;59.20;;;;;;5001843;28;2145;-70
2021/12/02 11:39:50;;;;;;;;;;;22.40;59.30;;;;;;5012559;28;1432;-69
2021/12/02 11:42:15;;;;;;;;;;;22.40;59.50;;;;;;5014703;28;1198;-69
2021/12/02 11:44:41;;;;;;;;;;;22.40;59.50;;;;;;5010554;28;1987;-69
2021/12/02 11:47:07;;;;;;;;;;;22.40;59.40;;;;;;5007283;28;1434;-70
2021/12/02 11:49:32;;;;;;;;;;;22.40;59.40;;;;;;5007335;28;1669;-69
2021/12/02 11:51:58;;;;;;;;;;;22.40;59.30;;;;;;5005979;28;1906;-70
2021/12/02 11:54:23;;;;;;;;;;;22.40;59.10;;;;;;4996050;28;1674;-69
2021/12/02 11:56:49;;;;;;;;;;;22.50;59.10;;;;;;5006813;28;1812;-68
2021/12/02 11:59:15;;;;;;;;;;;22.50;59.10;;;;;;5002912;28;1901;-68
2021/12/02 12:01:43;;;;;;;;;;;22.50;59.00;;;;;;5008319;28;1585;-68
2021/12/02 12:04:09;;;;;;;;;;;22.50;58.90;;;;;;5009224;28;1236;-69
2021/12/02 12:06:34;;;;;;;;;;;22.50;58.90;;;;;;5012422;28;1550;-69
2021/12/02 12:09:00;;;;;;;;;;;22.50;58.90;;;;;;5013095;28;1336;-69
2021/12/02 12:11:27;;;;;;;;;;;22.50;58.90;;;;;;5001856;28;1957;-68
2021/12/02 12:14:05;;;;;;;;;;;22.60;58.90;;;;;;5011548;28;1519;-68
2021/12/02 12:16:35;;;;;;;;;;;22.50;58.90;;;;;;5020825;28;1564;-68
2021/12/02 12:19:20;;;;;;;;;;;22.50;58.90;;;;;;5008568;28;981;-69
2021/12/02 12:21:53;;;;;;;;;;;22.60;59.40;;;;;;5007417;28;1681;-69
2021/12/02 12:24:18;;;;;;;;;;;22.60;59.20;;;;;;5007967;28;1971;-69
2021/12/02 12:26:45;;;;;;;;;;;22.50;59.40;;;;;;5007066;28;2173;-68
2021/12/02 12:29:13;;;;;;;;;;;22.60;59.30;;;;;;5010302;28;1557;-69
2021/12/02 12:32:00;;;;;;;;;;;22.60;59.20;;;;;;4997268;28;1895;-68
2021/12/02 12:34:29;;;;;;;;;;;22.50;59.20;;;;;;4996051;28;1605;-68
2021/12/02 12:36:56;;;;;;;;;;;22.50;59.30;;;;;;5016537;28;1364;-68
2021/12/02 12:39:25;;;;;;;;;;;22.50;59.20;;;;;;4995740;28;1274;-68
2021/12/02 12:42:10;;;;;;;;;;;22.50;59.30;;;;;;5003289;28;1225;-68
2021/12/02 12:44:52;;;;;;;;;;;22.50;59.30;;;;;;5013673;28;1315;-68
2021/12/02 12:47:18;;;;;;;;;;;22.50;59.30;;;;;;5014273;28;1204;-68
2021/12/02 12:49:45;;;;;;;;;;;22.50;59.40;;;;;;5014855;28;1341;-68
2021/12/02 12:52:14;;;;;;;;;;;22.50;59.60;;;;;;5014390;28;1910;-68
2021/12/02 12:54:40;;;;;;;;;;;22.50;59.50;;;;;;5006655;28;1300;-68
2021/12/02 12:57:06;;;;;;;;;;;22.50;59.50;;;;;;5009715;28;1995;-68
2021/12/02 12:59:46;;;;;;;;;;;22.50;59.60;;;;;;5012220;28;1208;-68
2021/12/02 13:02:13;;;;;;;;;;;22.40;59.50;;;;;;5007139;28;1255;-69
2021/12/02 13:04:51;;;;;;;;;;;22.40;59.70;;;;;;5005370;28;1087;-69
2021/12/02 13:07:17;;;;;;;;;;;22.40;55.50;;;;;;4995379;28;1224;-69
2021/12/02 13:10:00;;;;;;;;;;;22.30;51.60;;;;;;4995481;28;1122;-69
2021/12/02 13:12:44;;;;;;;;;;;22.30;50.10;;;;;;5005778;28;1890;-70
2021/12/02 13:15:09;;;;;;;;;;;22.20;49.10;;;;;;5008423;28;1339;-68
2021/12/02 13:17:37;;;;;;;;;;;22.10;48.20;;;;;;5011759;28;1189;-70
2021/12/02 13:20:13;;;;;;;;;;;22.10;48.10;;;;;;4999834;28;1325;-69
2021/12/02 13:22:38;;;;;;;;;;;22.00;47.20;;;;;;5003536;28;1270;-69
2021/12/02 13:25:22;;;;;;;;;;;21.90;46.80;;;;;;4995180;28;1346;-69
2021/12/02 13:27:47;;;;;;;;;;;21.90;46.60;;;;;;4995153;28;1362;-69
2021/12/02 13:30:13;;;;;;;;;;;21.80;45.90;;;;;;5005578;28;1393;-69
2021/12/02 13:32:39;;;;;;;;;;;21.80;45.50;;;;;;5011759;28;1953;-69
2021/12/02 13:35:04;;;;;;;;;;;21.70;45.20;;;;;;5021855;28;1358;-69
2021/12/02 13:37:30;;;;;;;;;;;21.70;45.00;;;;;;4993274;28;1056;-69
2021/12/02 13:39:55;;;;;;;;;;;21.60;44.40;;;;;;4994702;28;1029;-69
2021/12/02 13:42:20;;;;;;;;;;;21.60;44.50;;;;;;5006056;28;1182;-69
2021/12/02 13:44:49;;;;;;;;;;;21.60;44.10;;;;;;5014458;28;1416;-69
2021/12/02 13:47:27;;;;;;;;;;;21.50;43.80;;;;;;4999772;28;1284;-69
2021/12/02 13:49:54;;;;;;;;;;;21.50;43.40;;;;;;5012849;28;1309;-69
2021/12/02 13:52:41;;;;;;;;;;;21.40;43.50;;;;;;4998410;28;1906;-69
2021/12/02 13:55:23;;;;;;;;;;;21.40;43.10;;;;;;4997909;28;1789;-68
2021/12/02 13:57:49;;;;;;;;;;;21.40;43.30;;;;;;5012092;28;1788;-69
2021/12/02 14:00:15;;;;;;;;;;;21.30;43.00;;;;;;5005343;28;1054;-69
2021/12/02 14:02:41;;;;;;;;;;;21.30;42.80;;;;;;5006970;28;1281;-70
2021/12/02 14:05:10;;;;;;;;;;;21.30;42.30;;;;;;5012967;28;1286;-69
2021/12/02 14:07:36;;;;;;;;;;;21.30;42.30;;;;;;4999696;28;1099;-68
2021/12/02 14:10:01;;;;;;;;;;;21.20;42.00;;;;;;4998962;28;1304;-69
2021/12/02 14:12:37;;;;;;;;;;;21.30;42.00;;;;;;4999715;28;1902;-69
2021/12/02 14:15:09;;;;;;;;;;;21.20;41.70;;;;;;4998172;28;1417;-70
2021/12/02 14:17:46;;;;;;;;;;;21.20;41.60;;;;;;4994045;28;1076;-70
2021/12/02 14:20:11;;;;;;;;;;;21.20;41.30;;;;;;4996362;28;1330;-70
2021/12/02 14:22:39;;;;;;;;;;;21.10;41.20;;;;;;5012607;28;1191;-68
2021/12/02 14:25:05;;;;;;;;;;;21.10;41.20;;;;;;4995634;28;1292;-69
2021/12/02 14:27:30;;;;;;;;;;;21.10;40.90;;;;;;4993559;28;1052;-69
2021/12/02 14:30:25;;;;;;;;;;;21.10;40.90;;;;;;5000201;28;1291;-70
2021/12/02 14:32:52;;;;;;;;;;;21.00;40.80;;;;;;4979391;28;1599;-69
2021/12/02 14:35:18;;;;;;;;;;;21.00;40.90;;;;;;4993433;28;1383;-70
2021/12/02 14:37:44;;;;;;;;;;;21.00;41.20;;;;;;5005711;28;1304;-70
2021/12/02 14:40:10;;;;;;;;;;;21.00;41.20;;;;;;5000120;28;1478;-70
2021/12/02 14:42:35;;;;;;;;;;;21.00;41.40;;;;;;4998087;28;1320;-70
2021/12/02 14:45:01;;;;;;;;;;;20.90;41.50;;;;;;4993240;28;1127;-70
2021/12/02 14:47:26;;;;;;;;;;;20.90;41.30;;;;;;4994817;28;1284;-69
2021/12/02 14:49:54;;;;;;;;;;;20.90;41.50;;;;;;5009871;28;1158;-69